Terminal Aerodrome Forecast
Issued by NWS Cleveland, OH

Home | Current Version | Previous Version | Graphics & Text | Print | Product List | Glossary Off
Versions: 1 2 3 4 5 6 7 8 9 10 11 12 13 14 15 16 17 18 19 20 21 22 23 24 25 26 27 28 29

000
FTUS41 KCLE 230520
TAFCLE
TAF
KCLE 230520Z 2306/2412 02005KT 5SM BR OVC005
      TEMPO 2306/2308 SCT005 OVC035
     FM231100 04010KT 3SM -RA BR OVC008
     FM231400 04010KT 2SM -RA BR OVC004
     FM240000 03006KT 4SM BR OVC010=

USA.gov is the U.S. government's official web portal to all federal, state and local government web resources and services.